KARV/ARV METAR and TAF weather

Enter ICAO airport designator
Station Type Date Time Source
KARV METAR 2024/07/07 18:15 UTC NOAA

KARV 071815Z AUTO 29006KT 10SM TSRA SCT037 BKN055 OVC075 19/18 A2998 RMK AO2 LTG DSNT ALQS T01910181


Station Type Date Time Source
KARV Decoded METAR 2024/07/07 18:15 UTC NOAA

Minocqua/Woodruff, Lakeland Airport/Noble F. Lee Memorial Field, WI, United States (KARV) 45-56N 089-44W
Jul 07, 2024 - 02:15 PM EDT / 2024.07.07 1815 UTC
Wind: from the WNW (290 degrees) at 7 MPH (6 KT):0
Visibility: 10 mile(s):0
Sky conditions: overcast
Weather: rain with thunder; Lightning observed
Temperature: 66.4 F (19.1 C)
Dew Point: 64.6 F (18.1 C)
Relative Humidity: 93%
Pressure (altimeter): 29.98 in. Hg (1015 hPa)
ob: KARV 071815Z AUTO 29006KT 10SM TSRA SCT037 BKN055 OVC075 19/18 A2998 RMK AO2 LTG DSNT ALQS T01910181
cycle: 18

Station Type Date Time Source
KARV TAF UTC NOAA

Error!

Example: see airport list